Time;durP1;ratioP1;P1;durP2;ratioP2;P2;SDS_P1;SDS_P2;PMS_P1;PMS_P2;Temp;Humidity;BMP_temperature;BMP_pressure;BME280_temperature;BME280_humidity;BME280_pressure;Samples;Min_cycle;Max_cycle;Signal;HPM_P1;HPM_P2
2022/06/28 00:00:55;;;;;;;;;;;;;;;;;;1902819;28;7038;-61
2022/06/28 00:01:53;;;;;;;;;;;;;;;;;;1902037;28;7320;-62
2022/06/28 00:02:51;;;;;;;;;;;;;;;;;;1901918;28;7005;-61
2022/06/28 00:03:49;;;;;;;;;;;;;;;;;;1902318;28;7175;-61
2022/06/28 00:04:46;;;;;;;;;;;;;;;;;;1900553;28;7120;-62
2022/06/28 00:05:43;;;;;;;;;;;;;;;;;;1899266;28;8790;-62
2022/06/28 00:06:41;;;;;;;;;;;;;;;;;;1896018;28;7124;-62
2022/06/28 00:07:38;;;;;;;;;;;;;;;;;;1898014;28;7320;-61
2022/06/28 00:08:36;;;;;;;;;;;;;;;;;;1901213;28;7009;-61
2022/06/28 00:09:33;;;;;;;;;;;;;;;;;;1915947;28;7173;-61
2022/06/28 00:10:31;;;;;;;;;;;;;;;;;;1913530;28;7005;-61
2022/06/28 00:11:28;;;;;;;;;;;;;;;;;;1901530;28;7050;-61
2022/06/28 00:12:26;;;;;;;;;;;;;;;;;;1902101;28;8381;-62
2022/06/28 00:13:23;;;;;;;;;;;;;;;;;;1901891;28;7399;-62
2022/06/28 00:16:53;;;;;;;;;;;;;;;;;;1904262;28;8883;-62
2022/06/28 00:17:50;;;;;;;;;;;;;;;;;;1905207;28;7009;-62
2022/06/28 00:18:49;;;;;;;;;;;;;;;;;;1899027;28;7009;-61
2022/06/28 00:19:46;;;;;;;;;;;;;;;;;;1900176;28;7009;-61
2022/06/28 00:20:44;;;;;;;;;;;;;;;;;;1901462;28;7320;-62
2022/06/28 00:21:41;;;;;;;;;;;;;;;;;;1900394;28;7207;-60
2022/06/28 00:22:39;;;;;;;;;;;;;;;;;;1899733;28;8098;-61
2022/06/28 00:23:38;;;;;;;;;;;;;;;;;;1900215;28;7148;-60
2022/06/28 00:24:35;;;;;;;;;;;;;;;;;;1901528;28;7005;-60
2022/06/28 00:25:33;;;;;;;;;;;;;;;;;;1901128;28;8407;-60
2022/06/28 00:26:30;;;;;;;;;;;;;;;;;;1899166;28;8024;-61
2022/06/28 00:27:28;;;;;;;;;;;;;;;;;;1899913;28;7005;-61
2022/06/28 00:28:25;;;;;;;;;;;;;;;;;;1901524;28;7100;-62
2022/06/28 00:29:23;;;;;;;;;;;;;;;;;;1904768;28;7001;-60
2022/06/28 00:30:20;;;;;;;;;;;;;;;;;;1902219;28;7106;-61
2022/06/28 00:31:17;;;;;;;;;;;;;;;;;;1903837;28;7005;-62
2022/06/28 00:32:15;;;;;;;;;;;;;;;;;;1899909;28;7099;-62
2022/06/28 00:33:12;;;;;;;;;;;;;;;;;;1903127;28;7033;-60
2022/06/28 00:34:10;;;;;;;;;;;;;;;;;;1903227;28;7630;-61
2022/06/28 00:35:08;;;;;;;;;;;;;;;;;;1898016;28;7021;-61
2022/06/28 00:36:05;;;;;;;;;;;;;;;;;;1899345;28;7038;-61
2022/06/28 00:37:03;;;;;;;;;;;;;;;;;;1898399;28;8027;-62
2022/06/28 00:38:00;;;;;;;;;;;;;;;;;;1898360;28;7450;-61
2022/06/28 00:38:58;;;;;;;;;;;;;;;;;;1900843;28;7188;-61
2022/06/28 00:39:56;;;;;;;;;;;;;;;;;;1900049;28;7029;-60
2022/06/28 00:40:54;;;;;;;;;;;;;;;;;;1898269;28;7134;-60
2022/06/28 00:41:51;;;;;;;;;;;;;;;;;;1900120;28;8321;-61
2022/06/28 00:42:49;;;;;;;;;;;;;;;;;;1904913;28;7109;-61
2022/06/28 00:43:46;;;;;;;;;;;;;;;;;;1901198;28;7132;-61
2022/06/28 00:44:44;;;;;;;;;;;;;;;;;;1898958;28;7112;-61
2022/06/28 00:45:43;;;;;;;;;;;;;;;;;;1900290;28;7006;-61
2022/06/28 00:46:40;;;;;;;;;;;;;;;;;;1904085;28;7953;-62
2022/06/28 00:47:38;;;;;;;;;;;;;;;;;;1901824;28;7054;-60
2022/06/28 00:48:36;;;;;;;;;;;;;;;;;;1899658;28;7324;-61
2022/06/28 00:49:33;;;;;;;;;;;;;;;;;;1897549;28;7113;-62
2022/06/28 00:50:33;;;;;;;;;;;;;;;;;;1899200;28;7005;-61
2022/06/28 00:51:32;;;;;;;;;;;;;;;;;;1899233;28;7050;-60
2022/06/28 00:52:29;;;;;;;;;;;;;;;;;;1898772;28;7032;-62
2022/06/28 00:53:27;;;;;;;;;;;;;;;;;;1902323;28;7017;-62
2022/06/28 00:54:25;;;;;;;;;;;;;;;;;;1897915;28;7044;-60
2022/06/28 00:55:22;;;;;;;;;;;;;;;;;;1901309;28;7100;-62
2022/06/28 00:56:20;;;;;;;;;;;;;;;;;;1901408;28;7096;-60
2022/06/28 00:57:17;;;;;;;;;;;;;;;;;;1909550;28;7013;-61
2022/06/28 00:58:17;;;;;;;;;;;;;;;;;;1909139;28;7199;-61
2022/06/28 00:59:14;;;;;;;;;;;;;;;;;;1909245;28;7045;-61
2022/06/28 01:00:12;;;;;;;;;;;;;;;;;;1901454;28;7100;-61
2022/06/28 01:01:10;;;;;;;;;;;;;;;;;;1901424;28;7010;-61
2022/06/28 01:02:07;;;;;;;;;;;;;;;;;;1896935;28;7487;-62
2022/06/28 01:03:05;;;;;;;;;;;;;;;;;;1902461;28;7096;-61
2022/06/28 01:04:03;;;;;;;;;;;;;;;;;;1900967;28;8008;-61
2022/06/28 01:05:01;;;;;;;;;;;;;;;;;;1902860;28;7042;-61
2022/06/28 01:05:59;;;;;;;;;;;;;;;;;;1903408;28;7017;-60
2022/06/28 01:06:56;;;;;;;;;;;;;;;;;;1902762;28;7328;-62
2022/06/28 01:07:54;;;;;;;;;;;;;;;;;;1898471;28;7119;-60
2022/06/28 01:08:51;;;;;;;;;;;;;;;;;;1901499;28;7148;-61
2022/06/28 01:09:48;;;;;;;;;;;;;;;;;;1899002;28;7042;-61
2022/06/28 01:10:46;;;;;;;;;;;;;;;;;;1916772;28;8027;-60
2022/06/28 01:11:43;;;;;;;;;;;;;;;;;;1912421;28;8331;-61
2022/06/28 01:12:41;;;;;;;;;;;;;;;;;;1900392;28;7042;-61
2022/06/28 01:13:39;;;;;;;;;;;;;;;;;;1900373;28;7009;-60
2022/06/28 01:14:36;;;;;;;;;;;;;;;;;;1896577;28;7093;-61
2022/06/28 01:15:34;;;;;;;;;;;;;;;;;;1902229;28;7001;-61
2022/06/28 01:16:32;;;;;;;;;;;;;;;;;;1901866;28;8033;-61
2022/06/28 01:17:29;;;;;;;;;;;;;;;;;;1900708;28;8118;-61
2022/06/28 01:18:27;;;;;;;;;;;;;;;;;;1917724;28;7005;-60
2022/06/28 01:19:24;;;;;;;;;;;;;;;;;;1916422;28;7092;-61
2022/06/28 01:20:22;;;;;;;;;;;;;;;;;;1903247;28;7021;-61
2022/06/28 01:21:20;;;;;;;;;;;;;;;;;;1901710;28;7606;-62
2022/06/28 01:22:17;;;;;;;;;;;;;;;;;;1899768;28;7045;-62
2022/06/28 01:23:16;;;;;;;;;;;;;;;;;;1899267;28;7021;-61
2022/06/28 01:24:13;;;;;;;;;;;;;;;;;;1901451;28;7042;-61
2022/06/28 01:25:11;;;;;;;;;;;;;;;;;;1897223;28;7092;-60
2022/06/28 01:26:15;;;;;;;;;;;;;;;;;;1899717;28;7017;-61
2022/06/28 01:27:14;;;;;;;;;;;;;;;;;;1900515;28;7006;-61
2022/06/28 01:28:12;;;;;;;;;;;;;;;;;;1902586;28;7153;-61
2022/06/28 01:29:10;;;;;;;;;;;;;;;;;;1899829;28;7017;-61
2022/06/28 01:30:08;;;;;;;;;;;;;;;;;;1901126;28;7001;-61
2022/06/28 01:31:06;;;;;;;;;;;;;;;;;;1899437;28;7041;-61
2022/06/28 01:32:04;;;;;;;;;;;;;;;;;;1898898;28;7101;-61
2022/06/28 01:33:02;;;;;;;;;;;;;;;;;;1900637;28;7266;-60
2022/06/28 01:34:01;;;;;;;;;;;;;;;;;;1905517;28;7241;-61
2022/06/28 01:34:59;;;;;;;;;;;;;;;;;;1901303;28;7375;-60
2022/06/28 01:35:56;;;;;;;;;;;;;;;;;;1903450;28;7005;-61
2022/06/28 01:36:54;;;;;;;;;;;;;;;;;;1900958;28;8155;-61
2022/06/28 01:37:51;;;;;;;;;;;;;;;;;;1904476;28;8141;-61
2022/06/28 01:38:50;;;;;;;;;;;;;;;;;;1900222;28;7210;-61
2022/06/28 01:39:47;;;;;;;;;;;;;;;;;;1899260;28;7448;-60
2022/06/28 01:40:46;;;;;;;;;;;;;;;;;;1902620;28;7033;-61
2022/06/28 01:41:44;;;;;;;;;;;;;;;;;;1897501;28;7167;-60
2022/06/28 01:42:41;;;;;;;;;;;;;;;;;;1900927;28;8095;-60
2022/06/28 01:43:39;;;;;;;;;;;;;;;;;;1902751;28;7009;-61
2022/06/28 01:44:38;;;;;;;;;;;;;;;;;;1900882;28;7025;-61
2022/06/28 01:45:36;;;;;;;;;;;;;;;;;;1898740;28;8019;-61
2022/06/28 01:46:36;;;;;;;;;;;;;;;;;;1900645;28;8023;-61
2022/06/28 01:47:36;;;;;;;;;;;;;;;;;;1917207;28;7908;-62
2022/06/28 01:48:33;;;;;;;;;;;;;;;;;;1914822;28;7096;-61
2022/06/28 01:49:31;;;;;;;;;;;;;;;;;;1900834;28;7005;-62
2022/06/28 01:50:28;;;;;;;;;;;;;;;;;;1899954;28;7038;-60
2022/06/28 01:51:25;;;;;;;;;;;;;;;;;;1899773;28;7091;-61
2022/06/28 01:52:23;;;;;;;;;;;;;;;;;;1902723;28;7096;-61
2022/06/28 01:53:21;;;;;;;;;;;;;;;;;;1902163;28;8050;-60
2022/06/28 01:54:18;;;;;;;;;;;;;;;;;;1905329;28;7113;-62
2022/06/28 01:55:16;;;;;;;;;;;;;;;;;;1901001;28;8017;-61
2022/06/28 01:56:13;;;;;;;;;;;;;;;;;;1915638;28;7009;-62
2022/06/28 01:57:11;;;;;;;;;;;;;;;;;;1912505;28;7963;-61
2022/06/28 01:58:09;;;;;;;;;;;;;;;;;;1907225;28;7034;-61
2022/06/28 01:59:06;;;;;;;;;;;;;;;;;;1910699;28;7128;-60
2022/06/28 02:00:04;;;;;;;;;;;;;;;;;;1900143;28;7041;-61
2022/06/28 02:01:01;;;;;;;;;;;;;;;;;;1901430;28;8046;-60
2022/06/28 02:01:59;;;;;;;;;;;;;;;;;;1901058;28;7122;-61
2022/06/28 02:02:56;;;;;;;;;;;;;;;;;;1902344;28;7005;-61
2022/06/28 02:03:54;;;;;;;;;;;;;;;;;;1898757;28;7005;-61
2022/06/28 02:04:51;;;;;;;;;;;;;;;;;;1902513;28;7159;-61
2022/06/28 02:05:50;;;;;;;;;;;;;;;;;;1903844;28;7219;-61
2022/06/28 02:06:48;;;;;;;;;;;;;;;;;;1900402;28;8044;-60
2022/06/28 02:07:47;;;;;;;;;;;;;;;;;;1904372;28;7103;-60
2022/06/28 02:08:44;;;;;;;;;;;;;;;;;;1903945;28;7021;-61
2022/06/28 02:09:41;;;;;;;;;;;;;;;;;;1900059;28;7009;-62
2022/06/28 02:10:39;;;;;;;;;;;;;;;;;;1909578;28;8798;-61
2022/06/28 02:11:36;;;;;;;;;;;;;;;;;;1905356;28;7086;-62
2022/06/28 02:12:34;;;;;;;;;;;;;;;;;;1901672;28;7387;-61
2022/06/28 02:13:31;;;;;;;;;;;;;;;;;;1900812;28;7017;-61
2022/06/28 02:14:29;;;;;;;;;;;;;;;;;;1901461;28;7005;-62
2022/06/28 02:15:26;;;;;;;;;;;;;;;;;;1901306;28;8014;-61
2022/06/28 02:16:24;;;;;;;;;;;;;;;;;;1899350;28;7005;-61
2022/06/28 02:17:21;;;;;;;;;;;;;;;;;;1902868;28;7001;-60
2022/06/28 02:18:18;;;;;;;;;;;;;;;;;;1900789;28;7982;-61
2022/06/28 02:19:16;;;;;;;;;;;;;;;;;;1900357;28;7009;-61
2022/06/28 02:20:13;;;;;;;;;;;;;;;;;;1899695;28;7095;-60
2022/06/28 02:21:10;;;;;;;;;;;;;;;;;;1902850;28;7005;-60
2022/06/28 02:22:08;;;;;;;;;;;;;;;;;;1899662;28;7092;-61
2022/06/28 21:23:29;;;;;;;;;;;;;;;;;;1919621;28;6795;-61
2022/06/28 21:24:26;;;;;;;;;;;;;;;;;;1916659;28;7045;-61
2022/06/28 21:25:24;;;;;;;;;;;;;;;;;;1912168;28;7010;-61
2022/06/28 21:26:21;;;;;;;;;;;;;;;;;;1915035;28;7212;-61
2022/06/28 21:27:19;;;;;;;;;;;;;;;;;;1913629;28;7006;-61
2022/06/28 21:28:16;;;;;;;;;;;;;;;;;;1913575;28;7009;-62
2022/06/28 21:29:13;;;;;;;;;;;;;;;;;;1915859;28;7144;-62
2022/06/28 21:30:11;;;;;;;;;;;;;;;;;;1912114;28;7085;-61
2022/06/28 21:31:09;;;;;;;;;;;;;;;;;;1912604;28;7009;-61
2022/06/28 21:32:06;;;;;;;;;;;;;;;;;;1913393;28;7120;-60
2022/06/28 21:33:04;;;;;;;;;;;;;;;;;;1913186;28;7098;-61
2022/06/28 21:34:01;;;;;;;;;;;;;;;;;;1911518;28;7050;-61
2022/06/28 21:34:59;;;;;;;;;;;;;;;;;;1911339;28;7046;-61
2022/06/28 21:35:56;;;;;;;;;;;;;;;;;;1910982;28;7006;-61
2022/06/28 21:36:54;;;;;;;;;;;;;;;;;;1914963;28;7021;-61
2022/06/28 21:37:51;;;;;;;;;;;;;;;;;;1911560;28;7041;-62
2022/06/28 21:38:48;;;;;;;;;;;;;;;;;;1917710;28;7017;-62
2022/06/28 21:39:46;;;;;;;;;;;;;;;;;;1914239;28;7009;-61
2022/06/28 21:40:44;;;;;;;;;;;;;;;;;;1911529;28;7021;-62
2022/06/28 21:41:42;;;;;;;;;;;;;;;;;;1917023;28;8093;-61
2022/06/28 21:42:39;;;;;;;;;;;;;;;;;;1912218;28;7034;-61
2022/06/28 21:43:36;;;;;;;;;;;;;;;;;;1913383;28;7026;-62
2022/06/28 21:44:40;;;;;;;;;;;;;;;;;;1915354;28;7026;-61
2022/06/28 21:45:38;;;;;;;;;;;;;;;;;;1915197;28;7148;-61
2022/06/28 21:46:35;;;;;;;;;;;;;;;;;;1916721;28;7009;-61
2022/06/28 21:47:32;;;;;;;;;;;;;;;;;;1915178;28;7005;-62
2022/06/28 21:48:30;;;;;;;;;;;;;;;;;;1914505;28;7152;-62
2022/06/28 21:49:27;;;;;;;;;;;;;;;;;;1912247;28;8044;-61
2022/06/28 21:50:25;;;;;;;;;;;;;;;;;;1911742;28;7343;-61
2022/06/28 21:51:41;;;;;;;;;;;;;;;;;;1915611;28;8460;-62
2022/06/28 21:52:39;;;;;;;;;;;;;;;;;;1913882;28;7009;-61
2022/06/28 21:53:36;;;;;;;;;;;;;;;;;;1914206;28;7001;-61
2022/06/28 21:54:33;;;;;;;;;;;;;;;;;;1913786;28;7013;-62
2022/06/28 21:55:31;;;;;;;;;;;;;;;;;;1912244;28;7001;-60
2022/06/28 21:56:28;;;;;;;;;;;;;;;;;;1912987;28;7014;-59
2022/06/28 21:57:26;;;;;;;;;;;;;;;;;;1913676;28;7092;-62
2022/06/28 21:58:23;;;;;;;;;;;;;;;;;;1912790;28;7042;-61
2022/06/28 21:59:20;;;;;;;;;;;;;;;;;;1911609;28;7108;-61
2022/06/28 22:00:27;;;;;;;;;;;;;;;;;;1913125;28;7002;-62
2022/06/28 22:01:24;;;;;;;;;;;;;;;;;;1913666;28;7005;-61
2022/06/28 22:02:22;;;;;;;;;;;;;;;;;;1911059;28;7010;-62
2022/06/28 22:03:19;;;;;;;;;;;;;;;;;;1917561;28;7033;-60
2022/06/28 22:04:16;;;;;;;;;;;;;;;;;;1914106;28;7335;-61
2022/06/28 22:05:14;;;;;;;;;;;;;;;;;;1913859;28;7116;-61
2022/06/28 22:06:11;;;;;;;;;;;;;;;;;;1912253;28;7009;-60
2022/06/28 22:07:10;;;;;;;;;;;;;;;;;;1910819;28;8055;-61
2022/06/28 22:08:08;;;;;;;;;;;;;;;;;;1914755;28;7006;-61
2022/06/28 22:09:08;;;;;;;;;;;;;;;;;;1913917;28;7096;-62
2022/06/28 22:10:06;;;;;;;;;;;;;;;;;;1914902;28;7134;-62
2022/06/28 22:11:31;;;;;;;;;;;;;;;;;;1912421;28;7307;-61
2022/06/28 22:12:20;;;;;;;;;;;;;;;;;;1912854;28;7127;-61
2022/06/28 22:13:18;;;;;;;;;;;;;;;;;;1915080;28;7005;-61
2022/06/28 22:14:15;;;;;;;;;;;;;;;;;;1914512;28;7005;-61
2022/06/28 22:15:12;;;;;;;;;;;;;;;;;;1915813;28;7140;-61
2022/06/28 22:16:10;;;;;;;;;;;;;;;;;;1917031;28;7292;-61
2022/06/28 22:17:07;;;;;;;;;;;;;;;;;;1913510;28;7129;-61
2022/06/28 22:18:05;;;;;;;;;;;;;;;;;;1913729;28;7096;-61
2022/06/28 22:19:04;;;;;;;;;;;;;;;;;;1912481;28;7096;-62
2022/06/28 22:20:01;;;;;;;;;;;;;;;;;;1912242;28;7120;-61
2022/06/28 22:20:59;;;;;;;;;;;;;;;;;;1912894;28;8087;-61
2022/06/28 22:21:56;;;;;;;;;;;;;;;;;;1911715;28;7040;-62
2022/06/28 22:22:53;;;;;;;;;;;;;;;;;;1913426;28;7017;-61
2022/06/28 22:23:51;;;;;;;;;;;;;;;;;;1913409;28;7017;-62
2022/06/28 22:24:48;;;;;;;;;;;;;;;;;;1912140;28;7038;-62
2022/06/28 22:25:45;;;;;;;;;;;;;;;;;;1911621;28;8039;-61
2022/06/28 22:26:43;;;;;;;;;;;;;;;;;;1910933;28;7451;-60
2022/06/28 22:27:40;;;;;;;;;;;;;;;;;;1912126;28;7116;-61
2022/06/28 22:28:38;;;;;;;;;;;;;;;;;;1911743;28;7203;-62
2022/06/28 22:29:35;;;;;;;;;;;;;;;;;;1912064;28;7042;-60
2022/06/28 22:30:32;;;;;;;;;;;;;;;;;;1911714;28;7486;-61
2022/06/28 22:31:30;;;;;;;;;;;;;;;;;;1912723;28;7009;-62
2022/06/28 22:32:29;;;;;;;;;;;;;;;;;;1911918;28;7074;-61
2022/06/28 22:33:26;;;;;;;;;;;;;;;;;;1910195;28;7200;-62
2022/06/28 22:34:23;;;;;;;;;;;;;;;;;;1907867;28;9071;-62
2022/06/28 22:35:21;;;;;;;;;;;;;;;;;;1908817;28;7009;-61
2022/06/28 22:36:18;;;;;;;;;;;;;;;;;;1908144;28;7146;-61
2022/06/28 22:37:15;;;;;;;;;;;;;;;;;;1907075;28;7116;-62
2022/06/28 22:38:13;;;;;;;;;;;;;;;;;;1905520;28;7065;-60
2022/06/28 22:39:10;;;;;;;;;;;;;;;;;;1906939;28;7013;-61
2022/06/28 22:40:08;;;;;;;;;;;;;;;;;;1907239;28;7018;-61
2022/06/28 22:41:05;;;;;;;;;;;;;;;;;;1909809;28;7999;-61
2022/06/28 22:42:03;;;;;;;;;;;;;;;;;;1911329;28;7009;-61
2022/06/28 22:43:00;;;;;;;;;;;;;;;;;;1908169;28;7009;-62
2022/06/28 22:43:58;;;;;;;;;;;;;;;;;;1908287;28;7382;-60
2022/06/28 22:44:55;;;;;;;;;;;;;;;;;;1911562;28;7131;-62
2022/06/28 22:45:52;;;;;;;;;;;;;;;;;;1908778;28;7042;-61
2022/06/28 22:46:50;;;;;;;;;;;;;;;;;;1904904;28;7026;-61
2022/06/28 22:47:47;;;;;;;;;;;;;;;;;;1907631;28;7128;-62
2022/06/28 22:48:45;;;;;;;;;;;;;;;;;;1912809;28;8050;-63
2022/06/28 22:49:42;;;;;;;;;;;;;;;;;;1910082;28;8096;-60
2022/06/28 22:50:40;;;;;;;;;;;;;;;;;;1907995;28;7121;-62
2022/06/28 22:51:38;;;;;;;;;;;;;;;;;;1909163;28;7088;-61
2022/06/28 22:52:35;;;;;;;;;;;;;;;;;;1908172;28;7001;-61
2022/06/28 22:53:33;;;;;;;;;;;;;;;;;;1908960;28;7120;-61
2022/06/28 22:54:30;;;;;;;;;;;;;;;;;;1905340;28;8217;-61
2022/06/28 22:55:28;;;;;;;;;;;;;;;;;;1909131;28;7428;-61
2022/06/28 22:56:25;;;;;;;;;;;;;;;;;;1909584;28;8128;-61
2022/06/28 22:57:22;;;;;;;;;;;;;;;;;;1908005;28;7761;-62
2022/06/28 22:58:20;;;;;;;;;;;;;;;;;;1910743;28;8036;-61
2022/06/28 22:59:17;;;;;;;;;;;;;;;;;;1909575;28;7017;-61
2022/06/28 23:00:15;;;;;;;;;;;;;;;;;;1906640;28;7046;-62
2022/06/28 23:01:12;;;;;;;;;;;;;;;;;;1907307;28;8340;-61
2022/06/28 23:02:09;;;;;;;;;;;;;;;;;;1906377;28;7104;-61
2022/06/28 23:03:07;;;;;;;;;;;;;;;;;;1906681;28;8067;-61
2022/06/28 23:04:05;;;;;;;;;;;;;;;;;;1910861;28;7340;-60
2022/06/28 23:05:02;;;;;;;;;;;;;;;;;;1906491;28;7058;-60
2022/06/28 23:06:00;;;;;;;;;;;;;;;;;;1906511;28;7042;-61
2022/06/28 23:06:57;;;;;;;;;;;;;;;;;;1908057;28;7316;-62
2022/06/28 23:07:54;;;;;;;;;;;;;;;;;;1906464;28;7006;-61
2022/06/28 23:08:52;;;;;;;;;;;;;;;;;;1905620;28;7132;-62
2022/06/28 23:09:49;;;;;;;;;;;;;;;;;;1908358;28;7372;-62
2022/06/28 23:10:59;;;;;;;;;;;;;;;;;;1910483;28;7005;-62
2022/06/28 23:11:56;;;;;;;;;;;;;;;;;;1913015;28;7005;-61
2022/06/28 23:12:54;;;;;;;;;;;;;;;;;;1908114;28;7100;-60
2022/06/28 23:13:51;;;;;;;;;;;;;;;;;;1910777;28;7037;-61
2022/06/28 23:14:48;;;;;;;;;;;;;;;;;;1905223;28;8011;-62
2022/06/28 23:15:46;;;;;;;;;;;;;;;;;;1911762;28;7001;-60
2022/06/28 23:16:43;;;;;;;;;;;;;;;;;;1907511;28;7331;-60
2022/06/28 23:17:41;;;;;;;;;;;;;;;;;;1909732;28;7002;-61
2022/06/28 23:18:39;;;;;;;;;;;;;;;;;;1908234;28;7006;-61
2022/06/28 23:19:36;;;;;;;;;;;;;;;;;;1908861;28;7038;-61
2022/06/28 23:20:34;;;;;;;;;;;;;;;;;;1907979;28;7093;-61
2022/06/28 23:21:31;;;;;;;;;;;;;;;;;;1910989;28;7006;-59
2022/06/28 23:22:28;;;;;;;;;;;;;;;;;;1910495;28;7009;-61
2022/06/28 23:23:26;;;;;;;;;;;;;;;;;;1908482;28;9341;-61
2022/06/28 23:24:24;;;;;;;;;;;;;;;;;;1907364;28;7010;-62
2022/06/28 23:25:21;;;;;;;;;;;;;;;;;;1909303;28;8102;-61
2022/06/28 23:26:18;;;;;;;;;;;;;;;;;;1907846;28;7009;-61
2022/06/28 23:27:16;;;;;;;;;;;;;;;;;;1906705;28;8015;-61
2022/06/28 23:28:13;;;;;;;;;;;;;;;;;;1906630;28;7096;-62
2022/06/28 23:29:11;;;;;;;;;;;;;;;;;;1907505;28;7013;-62
2022/06/28 23:30:08;;;;;;;;;;;;;;;;;;1907316;28;7155;-61
2022/06/28 23:31:06;;;;;;;;;;;;;;;;;;1910286;28;7116;-62
2022/06/28 23:32:03;;;;;;;;;;;;;;;;;;1907154;28;7101;-61
2022/06/28 23:33:01;;;;;;;;;;;;;;;;;;1909015;28;7076;-60
2022/06/28 23:33:58;;;;;;;;;;;;;;;;;;1910448;28;7009;-62
2022/06/28 23:34:56;;;;;;;;;;;;;;;;;;1909792;28;7134;-61
2022/06/28 23:35:53;;;;;;;;;;;;;;;;;;1907604;28;7297;-61
2022/06/28 23:36:51;;;;;;;;;;;;;;;;;;1906197;28;7033;-61
2022/06/28 23:37:48;;;;;;;;;;;;;;;;;;1906645;28;7009;-61
2022/06/28 23:38:45;;;;;;;;;;;;;;;;;;1906234;28;8043;-60
2022/06/28 23:39:43;;;;;;;;;;;;;;;;;;1907673;28;7408;-61
2022/06/28 23:40:40;;;;;;;;;;;;;;;;;;1906091;28;7100;-62
2022/06/28 23:41:38;;;;;;;;;;;;;;;;;;1907269;28;7388;-61
2022/06/28 23:42:35;;;;;;;;;;;;;;;;;;1905067;28;7201;-61
2022/06/28 23:43:33;;;;;;;;;;;;;;;;;;1908286;28;8016;-61
2022/06/28 23:44:30;;;;;;;;;;;;;;;;;;1907071;28;7970;-60
2022/06/28 23:45:28;;;;;;;;;;;;;;;;;;1908105;28;7136;-61
2022/06/28 23:46:25;;;;;;;;;;;;;;;;;;1903985;28;7130;-61
2022/06/28 23:47:23;;;;;;;;;;;;;;;;;;1908176;28;7375;-62
2022/06/28 23:48:21;;;;;;;;;;;;;;;;;;1909466;28;7092;-62
2022/06/28 23:49:19;;;;;;;;;;;;;;;;;;1906101;28;7901;-60
2022/06/28 23:50:16;;;;;;;;;;;;;;;;;;1908617;28;7001;-61
2022/06/28 23:51:13;;;;;;;;;;;;;;;;;;1906122;28;7013;-60
2022/06/28 23:52:11;;;;;;;;;;;;;;;;;;1907813;28;8016;-62
2022/06/28 23:53:08;;;;;;;;;;;;;;;;;;1910642;28;7018;-61
2022/06/28 23:55:22;;;;;;;;;;;;;;;;;;1909398;28;7092;-60
2022/06/28 23:56:19;;;;;;;;;;;;;;;;;;1907865;28;7005;-60
2022/06/28 23:57:17;;;;;;;;;;;;;;;;;;1906623;28;8352;-62
2022/06/28 23:58:14;;;;;;;;;;;;;;;;;;1906712;28;7001;-61
2022/06/28 23:59:11;;;;;;;;;;;;;;;;;;1905030;28;7350;-62
